Time;durP1;ratioP1;P1;durP2;ratioP2;P2;SDS_P1;SDS_P2;PMS_P1;PMS_P2;Temp;Humidity;BMP_temperature;BMP_pressure;BME280_temperature;BME280_humidity;BME280_pressure;Samples;Min_cycle;Max_cycle;Signal;HPM_P1;HPM_P2
2023/10/19 00:02:07;;;;;;;26.43;20.03;;;13.30;96.70;;;;;;5020200;28;20206;-62
2023/10/19 00:04:35;;;;;;;27.03;21.33;;;13.30;97.00;;;;;;5029039;28;20234;-62
2023/10/19 00:07:06;;;;;;;27.53;20.27;;;13.30;96.80;;;;;;5027299;28;20231;-62
2023/10/19 00:09:37;;;;;;;23.10;17.90;;;13.30;96.80;;;;;;5022471;28;20202;-62
2023/10/19 00:12:06;;;;;;;26.07;19.40;;;13.30;96.90;;;;;;5024902;28;20299;-62
2023/10/19 00:14:33;;;;;;;25.40;19.67;;;13.30;96.80;;;;;;5025106;28;20234;-62
2023/10/19 00:17:06;;;;;;;25.37;18.30;;;13.30;96.80;;;;;;5021998;28;20217;-61
2023/10/19 00:19:39;;;;;;;25.80;19.13;;;13.20;96.80;;;;;;5028003;28;20639;-62
2023/10/19 00:22:15;;;;;;;25.43;18.73;;;13.20;96.70;;;;;;5026971;28;20230;-61
2023/10/19 00:24:44;;;;;;;26.60;19.97;;;13.20;96.80;;;;;;5027854;28;20209;-61
2023/10/19 00:27:17;;;;;;;25.80;20.27;;;13.20;96.90;;;;;;5022323;28;20232;-61
2023/10/19 00:29:49;;;;;;;24.30;19.27;;;13.20;97.00;;;;;;5014888;28;20298;-61
2023/10/19 00:32:17;;;;;;;22.30;17.63;;;13.20;97.10;;;;;;5007467;28;20235;-61
2023/10/19 00:34:51;;;;;;;22.50;18.60;;;13.20;97.20;;;;;;5016260;28;20200;-61
2023/10/19 00:37:26;;;;;;;22.57;17.40;;;13.20;97.30;;;;;;5024969;28;20196;-61
2023/10/19 00:39:55;;;;;;;23.13;17.90;;;13.30;97.30;;;;;;4993913;28;20662;-61
2023/10/19 00:42:31;;;;;;;22.53;17.13;;;13.30;97.30;;;;;;5023795;28;20726;-61
2023/10/19 00:45:05;;;;;;;23.13;17.77;;;13.30;97.30;;;;;;5023904;28;20206;-61
2023/10/19 00:47:39;;;;;;;21.10;17.30;;;13.30;97.30;;;;;;5025229;28;20651;-61
2023/10/19 00:50:17;;;;;;;24.50;18.50;;;13.30;97.30;;;;;;5025070;28;20207;-60
2023/10/19 00:52:49;;;;;;;23.17;18.00;;;13.30;97.30;;;;;;4997782;28;20226;-60
2023/10/19 00:55:20;;;;;;;23.17;17.47;;;13.40;97.30;;;;;;5023011;28;20282;-61
2023/10/19 00:57:52;;;;;;;21.63;17.90;;;13.40;97.30;;;;;;5000863;28;20642;-61
2023/10/19 01:00:30;;;;;;;22.93;18.43;;;13.40;97.20;;;;;;5020875;28;20278;-61
2023/10/19 01:03:04;;;;;;;25.83;18.33;;;13.40;97.20;;;;;;5025512;28;20208;-61
2023/10/19 01:05:37;;;;;;;24.97;19.53;;;13.40;97.10;;;;;;5020107;28;20531;-61
2023/10/19 01:08:24;;;;;;;25.17;19.90;;;13.40;97.20;;;;;;5004353;28;20659;-61
2023/10/19 01:10:52;;;;;;;23.83;19.23;;;13.40;97.20;;;;;;5009689;28;20228;-61
2023/10/19 01:13:34;;;;;;;23.10;18.10;;;13.40;97.20;;;;;;5020819;28;20251;-61
2023/10/19 01:16:01;;;;;;;23.57;19.40;;;13.40;97.20;;;;;;5024055;28;20191;-61
2023/10/19 01:18:32;;;;;;;22.27;18.83;;;13.40;97.30;;;;;;5029219;28;20208;-62
2023/10/19 01:21:05;;;;;;;26.23;18.60;;;13.40;97.40;;;;;;5008799;28;20214;-61
2023/10/19 01:23:35;;;;;;;22.90;18.83;;;13.40;97.30;;;;;;5014590;28;20213;-61
2023/10/19 01:26:18;;;;;;;20.77;17.63;;;13.40;97.30;;;;;;5028742;28;20192;-61
2023/10/19 01:28:48;;;;;;;22.40;18.80;;;13.30;97.30;;;;;;5008561;28;20283;-61
2023/10/19 01:31:51;;;;;;;22.23;18.57;;;13.30;97.30;;;;;;5023578;28;20279;-61
2023/10/19 01:34:06;;;;;;;25.37;19.37;;;13.30;97.40;;;;;;5013399;28;20256;-61
2023/10/19 01:36:43;;;;;;;24.00;19.23;;;13.30;97.50;;;;;;5023105;28;20288;-61
2023/10/19 01:39:11;;;;;;;22.90;19.07;;;13.30;97.60;;;;;;5024867;28;20261;-61
2023/10/19 01:41:41;;;;;;;25.00;19.53;;;13.30;97.60;;;;;;5024393;28;20203;-62
2023/10/19 01:44:13;;;;;;;24.70;18.57;;;13.30;97.60;;;;;;5019082;28;20208;-61
2023/10/19 01:46:43;;;;;;;20.97;17.80;;;13.30;97.60;;;;;;5025117;28;20203;-61
2023/10/19 01:49:11;;;;;;;24.37;18.60;;;13.40;97.70;;;;;;5024082;28;20201;-61
2023/10/19 01:51:40;;;;;;;24.90;18.90;;;13.30;97.70;;;;;;5010389;28;20607;-61
2023/10/19 01:54:09;;;;;;;23.97;18.50;;;13.30;97.70;;;;;;5022612;28;20210;-61
2023/10/19 01:56:42;;;;;;;23.10;18.73;;;13.30;97.70;;;;;;5018835;28;20644;-61
2023/10/19 01:59:13;;;;;;;29.33;19.03;;;13.30;97.80;;;;;;5023446;28;20675;-61
2023/10/19 02:01:45;;;;;;;24.97;18.90;;;13.30;97.80;;;;;;5015217;28;20203;-61
2023/10/19 02:04:15;;;;;;;22.40;18.63;;;13.30;97.90;;;;;;5008978;28;20677;-61
2023/10/19 02:06:46;;;;;;;23.17;19.03;;;13.30;98.00;;;;;;5023117;28;20195;-61
2023/10/19 02:11:55;;;;;;;21.70;17.93;;;13.30;98.00;;;;;;5023139;28;20195;-61
2023/10/19 02:14:24;;;;;;;25.30;18.17;;;13.30;97.90;;;;;;5015720;28;20719;-61
2023/10/19 02:16:56;;;;;;;23.90;18.90;;;13.30;97.80;;;;;;5019682;28;20233;-60
2023/10/19 02:19:25;;;;;;;20.53;17.80;;;13.30;98.30;;;;;;5021258;28;20219;-60
2023/10/19 02:21:57;;;;;;;21.97;17.07;;;13.30;98.10;;;;;;5025294;28;20204;-60
2023/10/19 02:24:27;;;;;;;25.13;18.90;;;13.30;98.00;;;;;;5008983;28;20555;-60
2023/10/19 02:26:56;;;;;;;22.20;18.40;;;13.30;98.10;;;;;;5008393;28;20611;-61
2023/10/19 02:29:24;;;;;;;21.63;18.20;;;13.20;98.10;;;;;;5027819;28;20286;-61
2023/10/19 02:31:56;;;;;;;22.37;18.57;;;13.20;98.20;;;;;;5010798;28;20611;-61
2023/10/19 02:34:24;;;;;;;21.13;16.70;;;13.20;98.30;;;;;;5018481;28;20269;-61
2023/10/19 02:36:51;;;;;;;22.80;17.63;;;13.30;98.30;;;;;;5014315;28;20310;-61
2023/10/19 02:39:18;;;;;;;22.90;18.60;;;13.30;98.30;;;;;;5022303;28;20659;-61
2023/10/19 02:41:49;;;;;;;24.93;18.70;;;13.30;98.30;;;;;;5005960;28;20697;-61
2023/10/19 02:46:48;;;;;;;23.43;18.30;;;13.20;98.30;;;;;;5020606;28;20199;-60
2023/10/19 02:49:18;;;;;;;20.87;17.60;;;13.20;98.40;;;;;;5019163;28;20232;-61
2023/10/19 02:51:49;;;;;;;24.87;18.40;;;13.20;98.40;;;;;;5011832;28;20206;-61
2023/10/19 02:54:24;;;;;;;24.33;18.60;;;13.30;98.50;;;;;;5010760;28;20233;-61
2023/10/19 02:56:54;;;;;;;22.83;18.70;;;13.30;98.50;;;;;;5022967;28;20203;-61
2023/10/19 02:59:23;;;;;;;29.10;21.73;;;13.30;98.50;;;;;;5021930;28;20223;-61
2023/10/19 03:01:52;;;;;;;25.13;19.60;;;13.30;98.50;;;;;;5007208;28;20215;-60
2023/10/19 03:04:20;;;;;;;26.07;20.37;;;13.30;98.40;;;;;;5026306;28;20202;-61
2023/10/19 03:06:49;;;;;;;29.97;21.03;;;13.40;98.40;;;;;;5012274;28;20202;-60
2023/10/19 03:09:22;;;;;;;25.67;20.63;;;13.30;98.40;;;;;;5008859;28;20205;-60
2023/10/19 03:11:56;;;;;;;29.57;21.70;;;13.30;98.40;;;;;;5025726;28;20277;-60
2023/10/19 03:14:32;;;;;;;26.83;19.73;;;13.30;98.70;;;;;;5013498;28;20248;-60
2023/10/19 03:17:03;;;;;;;27.60;19.47;;;13.30;98.40;;;;;;5009203;28;20301;-60
2023/10/19 03:19:30;;;;;;;24.03;19.10;;;13.30;98.50;;;;;;5024469;28;20262;-60
2023/10/19 03:22:00;;;;;;;26.47;19.07;;;13.40;98.60;;;;;;5026909;28;20196;-60
2023/10/19 03:24:38;;;;;;;22.63;17.17;;;13.40;98.60;;;;;;5009004;28;20201;-60
2023/10/19 03:27:15;;;;;;;25.20;18.10;;;13.40;98.80;;;;;;5023933;28;20238;-60
2023/10/19 03:29:59;;;;;;;26.43;18.57;;;13.40;98.40;;;;;;5023446;28;20205;-60
2023/10/19 03:32:35;;;;;;;26.27;20.13;;;13.30;98.40;;;;;;5021516;28;20255;-60
2023/10/19 03:35:04;;;;;;;26.30;19.60;;;13.30;98.50;;;;;;5023897;28;20634;-60
2023/10/19 03:37:34;;;;;;;26.53;20.30;;;13.30;98.50;;;;;;5020181;28;20221;-60
2023/10/19 03:40:09;;;;;;;27.07;20.93;;;13.20;98.50;;;;;;5000105;28;20343;-61
2023/10/19 03:42:44;;;;;;;27.87;20.53;;;13.20;98.60;;;;;;5008965;28;20625;-60
2023/10/19 03:45:16;;;;;;;30.23;21.37;;;13.20;98.60;;;;;;5024257;28;20223;-60
2023/10/19 03:47:49;;;;;;;26.00;21.97;;;13.20;98.70;;;;;;5010913;28;20600;-60
2023/10/19 03:50:20;;;;;;;26.90;21.97;;;13.20;98.80;;;;;;5019114;28;20192;-60
2023/10/19 03:52:48;;;;;;;26.77;22.33;;;13.20;98.80;;;;;;5024960;28;20197;-60
2023/10/19 03:55:18;;;;;;;30.07;23.27;;;13.20;98.80;;;;;;5007513;28;20208;-60
2023/10/19 03:57:54;;;;;;;28.00;22.53;;;13.20;98.90;;;;;;5002137;28;20204;-60
2023/10/19 04:00:28;;;;;;;28.53;21.67;;;13.20;99.00;;;;;;5021823;28;20205;-60
2023/10/19 04:02:55;;;;;;;26.77;20.33;;;13.20;99.00;;;;;;5024769;28;20201;-60
2023/10/19 04:05:24;;;;;;;22.10;19.00;;;13.20;99.00;;;;;;5019341;28;20200;-59
2023/10/19 04:07:58;;;;;;;26.03;19.53;;;13.30;99.00;;;;;;5008391;28;20279;-59
2023/10/19 04:13:07;;;;;;;29.13;22.13;;;13.30;99.10;;;;;;5023432;28;20222;-59
2023/10/19 04:15:36;;;;;;;27.03;21.83;;;13.30;99.00;;;;;;5028648;28;20209;-59
2023/10/19 04:18:10;;;;;;;26.20;20.57;;;13.30;99.00;;;;;;5030115;28;20219;-59
2023/10/19 04:23:14;;;;;;;27.27;20.40;;;13.30;99.00;;;;;;5020500;28;20285;-60
2023/10/19 04:25:45;;;;;;;27.33;21.40;;;13.30;99.00;;;;;;5027651;28;20636;-60
2023/10/19 04:28:14;;;;;;;26.83;20.77;;;13.30;99.00;;;;;;5027908;28;20207;-59
2023/10/19 04:30:41;;;;;;;26.17;20.27;;;13.30;99.00;;;;;;5022840;28;20206;-59
2023/10/19 04:33:11;;;;;;;24.67;19.97;;;13.30;98.90;;;;;;5028600;28;20219;-59
2023/10/19 04:35:42;;;;;;;23.33;20.03;;;13.40;99.00;;;;;;5021744;28;20206;-59
2023/10/19 04:38:09;;;;;;;29.13;20.00;;;13.30;98.90;;;;;;5026512;28;20290;-59
2023/10/19 04:40:40;;;;;;;24.87;19.37;;;13.30;98.90;;;;;;5024750;28;20222;-59
2023/10/19 04:43:07;;;;;;;23.40;20.17;;;13.30;99.00;;;;;;5022945;28;20199;-59
2023/10/19 04:45:34;;;;;;;23.77;17.97;;;13.40;99.10;;;;;;5026020;28;20735;-59
2023/10/19 04:48:04;;;;;;;23.03;18.87;;;13.40;99.10;;;;;;5023070;28;20218;-59
2023/10/19 04:50:31;;;;;;;23.10;17.83;;;13.40;99.10;;;;;;5025043;28;20286;-59
2023/10/19 04:52:59;;;;;;;21.53;15.77;;;13.40;99.10;;;;;;5023923;28;20269;-59
2023/10/19 04:55:27;;;;;;;18.10;15.53;;;13.40;99.10;;;;;;5021642;28;20205;-59
2023/10/19 04:57:54;;;;;;;19.57;15.37;;;13.40;99.00;;;;;;5027748;28;20675;-59
2023/10/19 05:00:24;;;;;;;23.20;17.33;;;13.40;98.90;;;;;;5022022;28;20216;-59
2023/10/19 05:02:54;;;;;;;23.37;15.57;;;13.40;98.90;;;;;;5026541;28;20212;-59
2023/10/19 05:05:21;;;;;;;22.20;16.27;;;13.40;98.90;;;;;;5025810;28;20203;-59
2023/10/19 05:07:48;;;;;;;23.93;17.37;;;13.40;98.90;;;;;;5025905;28;20632;-59
2023/10/19 05:10:15;;;;;;;24.37;18.40;;;13.40;98.90;;;;;;5015006;28;20202;-60
2023/10/19 05:12:42;;;;;;;23.17;17.23;;;13.30;98.90;;;;;;5028474;28;20209;-60
2023/10/19 05:15:09;;;;;;;24.60;18.03;;;13.30;98.90;;;;;;5025953;28;20246;-60
2023/10/19 05:17:38;;;;;;;23.50;18.43;;;13.30;99.00;;;;;;5025834;28;20269;-60
2023/10/19 05:20:07;;;;;;;23.20;17.67;;;13.30;99.00;;;;;;5029543;28;20194;-60
2023/10/19 05:22:34;;;;;;;27.13;20.20;;;13.30;99.10;;;;;;5029851;28;20195;-60
2023/10/19 05:25:01;;;;;;;26.50;19.83;;;13.30;99.20;;;;;;5023207;28;20213;-60
2023/10/19 05:27:28;;;;;;;24.90;19.73;;;13.30;99.20;;;;;;5029858;28;20207;-59
2023/10/19 05:29:56;;;;;;;29.17;19.23;;;13.30;99.20;;;;;;5027078;28;20203;-59
2023/10/19 05:32:24;;;;;;;25.33;19.57;;;13.30;99.10;;;;;;5024478;28;20220;-59
2023/10/19 05:34:51;;;;;;;25.37;20.77;;;13.30;99.20;;;;;;5023963;28;20219;-60
2023/10/19 05:37:18;;;;;;;30.13;21.57;;;13.30;99.20;;;;;;5025843;28;20692;-60
2023/10/19 05:39:51;;;;;;;27.03;20.93;;;13.30;99.20;;;;;;5022681;28;20209;-60
2023/10/19 05:42:18;;;;;;;27.53;19.50;;;13.40;99.20;;;;;;5029053;28;20604;-60
2023/10/19 05:44:45;;;;;;;29.77;21.27;;;13.30;99.20;;;;;;5022188;28;20258;-60
2023/10/19 05:47:12;;;;;;;27.17;21.20;;;13.30;99.40;;;;;;5021454;28;20206;-60
2023/10/19 05:49:40;;;;;;;34.67;23.70;;;13.30;99.20;;;;;;5022823;28;20207;-60
2023/10/19 05:52:07;;;;;;;33.33;24.07;;;13.30;99.20;;;;;;5021990;28;20239;-60
2023/10/19 05:54:36;;;;;;;33.87;24.77;;;13.40;99.30;;;;;;5024406;28;20317;-60
2023/10/19 05:57:07;;;;;;;41.20;25.33;;;13.30;99.30;;;;;;5021835;28;20257;-60
2023/10/19 05:59:34;;;;;;;43.10;25.77;;;13.40;99.30;;;;;;5020104;28;20530;-60
2023/10/19 06:02:02;;;;;;;43.13;26.00;;;13.40;99.10;;;;;;5023588;28;20202;-60
2023/10/19 06:04:31;;;;;;;42.20;26.70;;;13.30;99.10;;;;;;5019552;28;20199;-60
2023/10/19 06:07:02;;;;;;;47.97;27.93;;;13.30;99.10;;;;;;5021561;28;20199;-60
2023/10/19 06:09:29;;;;;;;51.23;29.67;;;13.30;99.10;;;;;;5028610;28;20205;-60
2023/10/19 06:11:56;;;;;;;52.20;31.77;;;13.20;99.20;;;;;;5019706;28;20637;-60
2023/10/19 06:14:26;;;;;;;65.97;33.87;;;13.20;99.30;;;;;;5022151;28;20236;-60
2023/10/19 06:16:56;;;;;;;69.97;33.67;;;13.20;99.30;;;;;;5024047;28;20222;-60
2023/10/19 06:19:23;;;;;;;72.37;34.67;;;13.20;99.40;;;;;;5024877;28;20205;-60
2023/10/19 06:21:57;;;;;;;59.63;33.87;;;13.20;99.40;;;;;;5019828;28;20206;-59
2023/10/19 06:24:24;;;;;;;64.60;35.53;;;13.10;99.50;;;;;;5024919;28;20205;-59
2023/10/19 06:26:52;;;;;;;65.37;34.77;;;13.10;99.90;;;;;;5025760;28;20591;-60
2023/10/19 06:29:19;;;;;;;75.57;36.67;;;13.10;99.70;;;;;;5020136;28;20227;-60
2023/10/19 06:31:49;;;;;;;69.70;35.57;;;13.20;99.80;;;;;;5028779;28;20207;-60
2023/10/19 06:34:17;;;;;;;76.53;34.30;;;13.20;99.90;;;;;;5023935;28;20212;-60
2023/10/19 06:36:45;;;;;;;86.40;33.83;;;13.20;99.90;;;;;;5021438;28;20319;-60
2023/10/19 06:39:14;;;;;;;85.53;35.83;;;13.20;99.90;;;;;;5023399;28;20188;-60
2023/10/19 06:41:41;;;;;;;76.83;35.87;;;13.20;99.80;;;;;;5020101;28;20194;-60
2023/10/19 06:44:08;;;;;;;64.00;33.17;;;13.20;99.80;;;;;;5022969;28;20285;-59
2023/10/19 06:46:35;;;;;;;64.83;34.30;;;13.20;99.90;;;;;;5021574;28;20204;-59
2023/10/19 06:49:05;;;;;;;62.07;33.87;;;13.20;99.90;;;;;;5023199;28;20249;-59
2023/10/19 06:51:33;;;;;;;65.87;35.13;;;13.30;99.90;;;;;;5019814;28;20235;-60
2023/10/19 06:54:00;;;;;;;72.63;35.37;;;13.30;99.90;;;;;;5027380;28;20229;-60
2023/10/19 06:56:27;;;;;;;72.43;35.60;;;13.30;99.90;;;;;;5016999;28;20280;-59
2023/10/19 06:58:54;;;;;;;66.87;34.57;;;13.30;99.90;;;;;;5023818;28;20210;-60
2023/10/19 07:01:26;;;;;;;67.20;36.47;;;13.30;99.90;;;;;;5024040;28;20237;-59
2023/10/19 07:03:53;;;;;;;65.63;34.90;;;13.40;99.90;;;;;;5018071;28;20290;-60
2023/10/19 07:06:20;;;;;;;64.60;34.43;;;13.40;99.90;;;;;;5024661;28;20260;-60
2023/10/19 07:08:47;;;;;;;72.77;35.87;;;13.40;99.90;;;;;;5022605;28;20211;-60
2023/10/19 07:11:17;;;;;;;88.30;38.23;;;13.40;99.90;;;;;;5019234;28;20215;-60
2023/10/19 07:13:44;;;;;;;87.23;36.47;;;13.40;99.90;;;;;;5022002;28;20241;-60
2023/10/19 07:16:14;;;;;;;78.90;35.83;;;13.40;99.80;;;;;;5023217;28;20284;-59
2023/10/19 07:18:41;;;;;;;70.30;35.23;;;13.40;99.90;;;;;;5024976;28;20202;-60
2023/10/19 07:21:09;;;;;;;70.27;35.00;;;13.40;99.90;;;;;;5020463;28;20781;-59
2023/10/19 07:23:45;;;;;;;81.57;35.67;;;13.40;99.90;;;;;;5025973;28;20278;-60
2023/10/19 07:26:14;;;;;;;70.77;35.23;;;13.40;99.90;;;;;;5022505;28;20629;-60
2023/10/19 07:28:42;;;;;;;75.47;34.63;;;13.40;99.90;;;;;;5023159;28;20594;-59
2023/10/19 07:31:15;;;;;;;59.47;32.97;;;13.40;99.90;;;;;;5024306;28;20198;-60
2023/10/19 07:33:45;;;;;;;66.17;31.70;;;13.40;99.90;;;;;;5025458;28;20197;-60
2023/10/19 07:36:16;;;;;;;65.67;32.90;;;13.40;99.90;;;;;;5021093;28;20201;-60
2023/10/19 07:38:47;;;;;;;56.83;32.70;;;13.30;99.90;;;;;;5020975;28;20205;-59
2023/10/19 07:41:14;;;;;;;71.27;33.17;;;13.40;99.90;;;;;;5012977;28;20509;-59
2023/10/19 07:43:41;;;;;;;61.27;34.30;;;13.40;99.90;;;;;;5024282;28;20214;-60
2023/10/19 07:46:08;;;;;;;66.83;32.77;;;13.40;99.90;;;;;;5023929;28;20199;-60
2023/10/19 07:48:38;;;;;;;69.80;33.20;;;13.40;99.90;;;;;;5023641;28;20791;-59
2023/10/19 07:51:05;;;;;;;60.63;32.33;;;13.50;99.90;;;;;;5025690;28;20200;-59
2023/10/19 07:53:32;;;;;;;63.07;33.27;;;13.50;99.90;;;;;;5020284;28;20267;-60
2023/10/19 07:56:02;;;;;;;65.23;31.83;;;13.50;99.90;;;;;;5026185;28;20283;-60
2023/10/19 07:58:30;;;;;;;58.90;33.23;;;13.50;99.90;;;;;;5023088;28;20195;-60
2023/10/19 08:00:57;;;;;;;57.00;34.03;;;13.60;99.90;;;;;;5023283;28;20203;-60
2023/10/19 08:03:25;;;;;;;68.77;32.20;;;13.60;99.90;;;;;;5027876;28;20228;-60
2023/10/19 08:05:52;;;;;;;60.13;32.93;;;13.60;99.90;;;;;;5028259;28;20207;-60
2023/10/19 08:08:19;;;;;;;55.93;30.70;;;13.70;99.90;;;;;;5023621;28;20206;-60
2023/10/19 08:10:47;;;;;;;66.70;31.83;;;13.70;99.90;;;;;;5029445;28;20245;-59
2023/10/19 08:13:16;;;;;;;58.67;31.80;;;13.70;99.90;;;;;;5031615;28;20236;-59
2023/10/19 08:15:43;;;;;;;67.17;30.93;;;13.70;99.90;;;;;;5026915;28;20230;-60
2023/10/19 08:18:12;;;;;;;52.83;31.93;;;13.80;99.90;;;;;;5028412;28;20257;-60
2023/10/19 08:20:39;;;;;;;62.90;31.87;;;13.80;99.90;;;;;;5028457;28;20248;-60
2023/10/19 08:23:06;;;;;;;62.50;30.50;;;13.80;99.90;;;;;;5029189;28;20213;-60
2023/10/19 08:25:36;;;;;;;56.40;31.20;;;13.80;99.90;;;;;;5021003;28;20202;-59
2023/10/19 08:28:22;;;;;;;51.93;31.30;;;13.80;99.90;;;;;;5026408;28;20224;-59
2023/10/19 08:31:02;;;;;;;53.97;32.60;;;13.90;99.90;;;;;;5025221;28;20221;-60
2023/10/19 08:33:29;;;;;;;46.70;29.23;;;13.90;99.90;;;;;;5025116;28;20288;-59
2023/10/19 08:36:02;;;;;;;54.80;31.60;;;14.00;99.90;;;;;;5025891;28;20222;-59
2023/10/19 08:38:33;;;;;;;49.70;27.43;;;14.00;99.90;;;;;;5024481;28;20584;-59
2023/10/19 08:41:00;;;;;;;52.07;29.37;;;14.10;99.90;;;;;;5027134;28;20225;-60
2023/10/19 08:43:33;;;;;;;53.73;31.03;;;14.10;99.90;;;;;;5019230;28;20208;-60
2023/10/19 08:46:01;;;;;;;54.10;29.70;;;14.00;99.90;;;;;;5028050;28;20635;-60
2023/10/19 08:48:29;;;;;;;55.57;29.67;;;14.00;99.90;;;;;;5028645;28;20318;-59
2023/10/19 08:51:00;;;;;;;62.80;30.67;;;14.00;99.90;;;;;;5020785;28;20215;-59
2023/10/19 08:53:30;;;;;;;51.97;29.63;;;14.00;99.90;;;;;;5024729;28;20202;-59
2023/10/19 08:55:57;;;;;;;60.10;28.70;;;13.90;99.90;;;;;;5022760;28;20216;-60
2023/10/19 08:58:27;;;;;;;52.47;28.97;;;13.90;99.90;;;;;;5025976;28;20268;-60
2023/10/19 09:00:54;;;;;;;55.50;30.97;;;13.90;99.90;;;;;;5010358;28;20632;-60
2023/10/19 09:03:25;;;;;;;70.43;31.47;;;13.90;99.90;;;;;;5021987;28;20201;-60
2023/10/19 09:05:54;;;;;;;55.57;30.57;;;13.90;99.90;;;;;;5023919;28;20211;-59
2023/10/19 09:08:24;;;;;;;48.17;29.27;;;13.90;99.90;;;;;;5025704;28;20231;-59
2023/10/19 09:10:53;;;;;;;52.37;30.47;;;14.00;99.90;;;;;;5027029;28;20206;-60
2023/10/19 09:13:22;;;;;;;53.90;30.00;;;14.10;99.90;;;;;;5024995;28;20243;-60
2023/10/19 09:15:53;;;;;;;55.63;30.30;;;14.10;99.90;;;;;;5017829;28;20245;-60
2023/10/19 09:18:27;;;;;;;44.33;28.40;;;14.20;99.90;;;;;;5024543;28;20207;-60
2023/10/19 09:21:01;;;;;;;45.27;28.03;;;14.20;99.90;;;;;;5021344;28;20208;-60
2023/10/19 09:23:30;;;;;;;51.93;30.70;;;14.20;99.90;;;;;;5030121;28;20251;-60
2023/10/19 09:26:03;;;;;;;47.50;27.83;;;14.20;99.90;;;;;;5021567;28;20199;-60
2023/10/19 09:28:33;;;;;;;55.67;31.00;;;14.30;99.90;;;;;;5022285;28;20207;-60
2023/10/19 09:31:05;;;;;;;51.67;29.97;;;14.30;99.90;;;;;;5015986;28;20653;-60
2023/10/19 09:33:34;;;;;;;50.07;30.07;;;14.30;99.90;;;;;;5023622;28;20582;-60
2023/10/19 09:36:12;;;;;;;54.13;28.67;;;14.30;99.90;;;;;;5023148;28;20245;-59
2023/10/19 09:38:51;;;;;;;46.07;27.60;;;14.40;99.90;;;;;;5023816;28;20212;-60
2023/10/19 09:41:28;;;;;;;44.37;26.30;;;14.40;99.90;;;;;;5016795;28;20190;-59
2023/10/19 09:44:02;;;;;;;44.90;26.93;;;14.50;99.90;;;;;;5024393;28;20197;-60
2023/10/19 09:46:32;;;;;;;43.50;24.70;;;14.50;99.90;;;;;;5020943;28;20203;-60
2023/10/19 09:48:59;;;;;;;42.57;24.13;;;14.50;99.90;;;;;;5021743;28;20199;-60
2023/10/19 09:51:27;;;;;;;42.83;26.03;;;14.50;99.90;;;;;;5027256;28;20227;-60
2023/10/19 09:54:10;;;;;;;45.43;25.73;;;14.50;99.90;;;;;;5020150;28;20214;-59
2023/10/19 09:56:46;;;;;;;40.10;24.83;;;14.50;99.90;;;;;;5023623;28;20210;-60
2023/10/19 09:59:38;;;;;;;47.73;27.57;;;14.50;99.90;;;;;;5022374;28;20241;-60
2023/10/19 10:02:15;;;;;;;49.37;27.47;;;14.50;99.90;;;;;;5015292;28;20199;-60
2023/10/19 10:04:48;;;;;;;51.67;29.63;;;14.50;99.90;;;;;;5026013;28;20217;-60
2023/10/19 10:07:17;;;;;;;45.50;28.63;;;14.50;99.90;;;;;;5021255;28;20211;-60
2023/10/19 10:10:05;;;;;;;44.87;26.47;;;14.50;99.90;;;;;;5026229;28;20206;-59
2023/10/19 10:12:34;;;;;;;51.73;26.83;;;14.50;99.90;;;;;;5021695;28;20223;-59
2023/10/19 10:15:05;;;;;;;46.40;25.00;;;14.60;99.90;;;;;;5026751;28;20269;-59
2023/10/19 10:17:37;;;;;;;45.03;25.87;;;14.60;99.90;;;;;;5023269;28;20211;-59
2023/10/19 10:20:13;;;;;;;39.93;25.30;;;14.60;99.90;;;;;;5020682;28;20201;-59
2023/10/19 10:22:44;;;;;;;40.10;24.10;;;14.70;99.90;;;;;;5011368;28;20652;-60
2023/10/19 10:25:28;;;;;;;42.73;26.90;;;14.70;99.90;;;;;;5018448;28;20206;-60
2023/10/19 10:27:58;;;;;;;41.87;25.23;;;14.70;99.90;;;;;;5025547;28;20649;-60
2023/10/19 10:30:28;;;;;;;46.93;24.40;;;14.70;99.90;;;;;;5021872;28;20213;-60
2023/10/19 10:32:56;;;;;;;42.93;26.10;;;14.80;99.90;;;;;;5022736;28;20203;-60
2023/10/19 10:35:38;;;;;;;40.53;24.23;;;14.80;99.90;;;;;;5024213;28;20305;-60
2023/10/19 10:38:08;;;;;;;37.83;23.63;;;14.80;99.80;;;;;;5024617;28;20196;-60
2023/10/19 10:40:51;;;;;;;38.77;23.80;;;14.80;99.70;;;;;;5023130;28;20628;-60
2023/10/19 10:43:19;;;;;;;37.87;22.93;;;14.90;99.80;;;;;;5021141;28;20195;-60
2023/10/19 10:45:46;;;;;;;38.80;22.97;;;14.90;99.80;;;;;;5023548;28;20623;-60
2023/10/19 10:48:22;;;;;;;33.07;21.47;;;14.90;99.80;;;;;;5023588;28;20706;-60
2023/10/19 10:50:49;;;;;;;38.47;24.00;;;15.00;99.90;;;;;;5019575;28;20215;-59
2023/10/19 10:53:16;;;;;;;35.20;23.03;;;15.10;99.90;;;;;;5022111;28;20206;-59
2023/10/19 10:55:43;;;;;;;32.83;21.90;;;15.10;99.80;;;;;;5025757;28;20226;-59
2023/10/19 10:58:15;;;;;;;38.23;22.57;;;15.10;99.70;;;;;;5015914;28;20567;-60
2023/10/19 11:00:44;;;;;;;34.03;20.60;;;15.10;99.50;;;;;;5023446;28;20223;-59
2023/10/19 11:03:17;;;;;;;31.13;20.27;;;15.20;99.50;;;;;;5023878;28;20196;-59
2023/10/19 11:05:47;;;;;;;30.40;20.77;;;15.10;99.40;;;;;;5022721;28;20648;-59
2023/10/19 11:08:16;;;;;;;32.10;22.40;;;15.10;99.30;;;;;;5024893;28;20207;-59
2023/10/19 11:10:48;;;;;;;30.93;21.33;;;15.20;99.30;;;;;;5026925;28;20203;-60
2023/10/19 11:13:23;;;;;;;35.57;21.83;;;15.20;99.40;;;;;;5028052;28;20269;-60
2023/10/19 11:15:56;;;;;;;31.17;19.47;;;15.20;99.30;;;;;;5024713;28;20215;-60
2023/10/19 11:18:37;;;;;;;36.47;22.03;;;15.20;99.30;;;;;;5029793;28;20186;-60
2023/10/19 11:21:09;;;;;;;35.53;23.47;;;15.10;99.10;;;;;;5028868;28;20599;-59
2023/10/19 11:23:37;;;;;;;34.57;23.17;;;15.10;99.00;;;;;;5026085;28;20654;-60
2023/10/19 11:26:05;;;;;;;37.50;24.40;;;15.00;99.00;;;;;;5017537;28;20224;-59
2023/10/19 11:28:33;;;;;;;32.53;21.93;;;15.00;99.10;;;;;;5020680;28;20275;-60
2023/10/19 11:31:15;;;;;;;33.80;22.13;;;15.00;99.20;;;;;;5031404;28;20221;-60
2023/10/19 11:33:44;;;;;;;36.50;22.50;;;15.00;99.20;;;;;;5015177;28;20555;-59
2023/10/19 11:36:12;;;;;;;37.00;23.07;;;14.90;99.30;;;;;;5028749;28;20218;-59
2023/10/19 11:38:43;;;;;;;32.90;21.23;;;15.00;99.30;;;;;;5027062;28;20201;-59
2023/10/19 11:41:13;;;;;;;33.23;22.17;;;14.90;99.30;;;;;;5023509;28;20640;-59
2023/10/19 11:43:43;;;;;;;38.97;23.00;;;14.90;99.30;;;;;;5029163;28;20217;-59
2023/10/19 11:46:24;;;;;;;41.10;22.83;;;14.90;99.30;;;;;;5027746;28;20222;-59
2023/10/19 11:48:52;;;;;;;37.23;24.17;;;14.90;99.40;;;;;;5024714;28;20634;-59
2023/10/19 11:51:21;;;;;;;33.73;22.77;;;14.90;99.40;;;;;;5026302;28;20199;-59
2023/10/19 11:53:50;;;;;;;30.70;21.70;;;14.80;99.30;;;;;;5029158;28;20211;-60
2023/10/19 11:56:17;;;;;;;36.37;23.13;;;14.80;99.50;;;;;;5021461;28;20222;-60
2023/10/19 11:58:46;;;;;;;37.20;24.23;;;14.80;99.40;;;;;;5030192;28;20202;-59
2023/10/19 12:01:16;;;;;;;38.57;23.70;;;14.80;99.40;;;;;;5024377;28;20592;-60
2023/10/19 12:03:46;;;;;;;39.83;23.23;;;14.80;99.50;;;;;;5029839;28;20194;-60
2023/10/19 12:06:18;;;;;;;39.03;23.40;;;14.70;99.50;;;;;;5026474;28;20582;-60
2023/10/19 12:08:49;;;;;;;39.50;25.13;;;14.70;99.50;;;;;;5025317;28;20206;-60
2023/10/19 12:11:22;;;;;;;36.87;23.47;;;14.70;99.50;;;;;;5030228;28;20242;-59
2023/10/19 12:13:49;;;;;;;37.43;23.40;;;14.60;99.50;;;;;;5024174;28;20254;-60
2023/10/19 12:16:16;;;;;;;37.07;24.97;;;14.60;99.70;;;;;;5026481;28;20223;-60
2023/10/19 12:18:44;;;;;;;39.27;22.97;;;14.60;99.80;;;;;;5022877;28;20218;-60
2023/10/19 12:21:12;;;;;;;43.27;25.23;;;14.60;99.90;;;;;;5028464;28;20202;-60
2023/10/19 12:23:40;;;;;;;37.73;24.27;;;14.60;99.90;;;;;;5027293;28;20229;-60
2023/10/19 12:26:14;;;;;;;36.47;23.50;;;14.60;99.90;;;;;;5026585;28;20199;-60
2023/10/19 12:28:47;;;;;;;35.27;23.70;;;14.60;99.90;;;;;;5024763;28;20220;-60
2023/10/19 12:31:18;;;;;;;32.93;22.83;;;14.60;99.90;;;;;;5011231;28;20203;-59
2023/10/19 12:33:46;;;;;;;38.77;22.00;;;14.60;99.90;;;;;;5022696;28;20222;-60
2023/10/19 12:38:52;;;;;;;44.00;24.80;;;14.70;99.90;;;;;;5020620;28;20203;-59
2023/10/19 12:41:20;;;;;;;39.50;23.00;;;14.70;99.90;;;;;;5024211;28;20200;-59
2023/10/19 12:43:48;;;;;;;34.43;22.57;;;14.70;99.90;;;;;;5024796;28;20195;-59
2023/10/19 12:46:15;;;;;;;41.33;24.50;;;14.70;99.90;;;;;;5020710;28;20239;-59
2023/10/19 12:48:48;;;;;;;35.83;23.33;;;14.80;99.90;;;;;;5026796;28;20203;-59
2023/10/19 12:51:18;;;;;;;34.87;23.43;;;14.80;99.90;;;;;;5023950;28;20683;-60
2023/10/19 12:53:47;;;;;;;38.13;24.13;;;14.80;99.90;;;;;;5020937;28;20206;-60
2023/10/19 12:56:14;;;;;;;40.93;25.43;;;14.80;99.90;;;;;;5028926;28;20249;-60
2023/10/19 12:58:42;;;;;;;42.37;25.60;;;14.80;99.90;;;;;;5029486;28;20636;-60